createdAt,value
2022-08-17T00:01:30.073Z,100688.56
2022-08-17T00:04:09.294Z,100690.50
2022-08-17T00:06:38.278Z,100690.13
2022-08-17T00:09:05.620Z,100690.13
2022-08-17T00:11:36.996Z,100682.72
2022-08-17T00:14:13.709Z,100685.63
2022-08-17T00:16:53.457Z,100685.06
2022-08-17T00:19:25.079Z,100685.44
2022-08-17T00:22:32.061Z,100693.41
2022-08-17T00:24:42.868Z,100687.19
2022-08-17T00:27:09.387Z,100687.56
2022-08-17T00:29:36.346Z,100691.25
2022-08-17T00:33:13.692Z,100679.00
2022-08-17T00:34:49.988Z,100687.75
2022-08-17T00:37:16.680Z,100691.78
2022-08-17T00:39:43.453Z,100688.88
2022-08-17T00:42:18.895Z,100678.19
2022-08-17T00:44:45.934Z,100679.56
2022-08-17T00:47:12.590Z,100684.59
2022-08-17T00:49:39.063Z,100682.25
2022-08-17T00:52:15.286Z,100684.97
2022-08-17T00:54:44.696Z,100683.22
2022-08-17T00:57:18.902Z,100686.50
2022-08-17T00:59:51.150Z,100684.19
2022-08-17T01:02:34.244Z,100678.75
2022-08-17T01:05:09.922Z,100673.28
2022-08-17T01:07:37.910Z,100677.56
2022-08-17T01:10:09.024Z,100678.91
2022-08-17T01:12:56.772Z,100675.59
2022-08-17T01:15:23.484Z,100666.66
2022-08-17T01:17:50.227Z,100677.34
2022-08-17T01:20:16.952Z,100677.91
2022-08-17T01:22:43.543Z,100684.69
2022-08-17T01:25:12.654Z,100686.81
2022-08-17T01:27:39.462Z,100687.19
2022-08-17T01:30:56.850Z,100685.84
2022-08-17T01:32:58.052Z,100682.50
2022-08-17T01:35:24.727Z,100685.22
2022-08-17T01:37:51.217Z,100682.09
2022-08-17T01:40:33.000Z,100683.28
2022-08-17T01:43:03.960Z,100690.44
2022-08-17T01:45:33.762Z,100688.69
2022-08-17T01:48:01.036Z,100687.13
2022-08-17T01:50:31.383Z,100680.91
2022-08-17T01:53:06.121Z,100686.72
2022-08-17T01:55:39.707Z,100689.44
2022-08-17T01:58:09.636Z,100683.97
2022-08-17T02:00:47.839Z,100683.19
2022-08-17T02:03:25.106Z,100687.78
2022-08-17T02:05:53.231Z,100690.69
2022-08-17T02:08:36.913Z,100692.03
2022-08-17T02:11:11.608Z,100686.41
2022-08-17T02:13:39.028Z,100701.72
2022-08-17T02:16:05.957Z,100700.75
2022-08-17T02:18:32.837Z,100697.63
2022-08-17T02:20:59.738Z,100693.16
2022-08-17T02:23:29.185Z,100684.59
2022-08-17T02:25:58.783Z,100698.56
2022-08-17T02:28:25.435Z,100695.47
2022-08-17T02:31:01.022Z,100687.88
2022-08-17T02:33:41.760Z,100694.06
2022-08-17T02:36:12.331Z,100697.75
2022-08-17T02:38:40.536Z,100694.63
2022-08-17T02:41:08.013Z,100694.22
2022-08-17T02:43:35.398Z,100705.84
2022-08-17T02:46:01.931Z,100710.91
2022-08-17T02:48:31.561Z,100708.56
2022-08-17T02:51:00.131Z,100704.66
2022-08-17T02:53:27.701Z,100700.75
2022-08-17T02:56:02.171Z,100698.44
2022-08-17T02:58:34.635Z,100696.09
2022-08-17T03:01:03.672Z,100695.09
2022-08-17T03:03:30.154Z,100698.38
2022-08-17T03:05:56.601Z,100682.06
2022-08-17T03:08:23.386Z,100694.47
2022-08-17T03:10:50.484Z,100696.41
2022-08-17T03:13:17.611Z,100692.16
2022-08-17T03:15:46.181Z,100690.56
2022-08-17T03:18:24.175Z,100691.72
2022-08-17T03:20:56.950Z,100692.28
2022-08-17T03:23:25.542Z,100690.72
2022-08-17T03:25:53.733Z,100684.69
2022-08-17T03:28:21.406Z,100694.00
2022-08-17T03:30:47.933Z,100699.59
2022-08-17T03:33:14.786Z,100702.31
2022-08-17T03:35:41.700Z,100697.84
2022-08-17T03:38:10.849Z,100697.84
2022-08-17T03:40:58.887Z,100693.16
2022-08-17T03:43:25.153Z,100686.91
2022-08-17T03:46:19.289Z,100700.09
2022-08-17T03:49:15.025Z,100695.41
2022-08-17T03:52:00.012Z,100687.25
2022-08-17T03:54:45.186Z,100686.84
2022-08-17T03:57:12.423Z,100686.41
2022-08-17T03:59:39.419Z,100685.06
2022-08-17T04:02:21.336Z,100691.25
2022-08-17T04:04:50.873Z,100695.69
2022-08-17T04:07:19.474Z,100680.19
2022-08-17T04:09:46.084Z,100693.69
2022-08-17T04:12:16.071Z,100691.94
2022-08-17T04:14:53.001Z,100688.25
2022-08-17T04:17:24.089Z,100689.03
2022-08-17T04:19:51.184Z,100690.94
2022-08-17T04:22:31.850Z,100689.38
2022-08-17T04:25:15.270Z,100696.31
2022-08-17T04:27:41.905Z,100694.75
2022-08-17T04:30:09.033Z,100704.84
2022-08-17T04:33:07.529Z,100705.16
2022-08-17T04:35:43.065Z,100708.06
2022-08-17T04:38:12.345Z,100709.44
2022-08-17T04:40:57.248Z,100704.75
2022-08-17T04:43:25.695Z,100703.19
2022-08-17T04:45:57.175Z,100704.31
2022-08-17T04:48:29.573Z,100706.66
2022-08-17T04:51:06.149Z,100704.31
2022-08-17T04:53:32.691Z,100708.59
2022-08-17T04:55:59.414Z,100707.00
2022-08-17T04:58:26.295Z,100702.34
2022-08-17T05:00:53.196Z,100708.16
2022-08-17T05:03:19.713Z,100709.72
2022-08-17T05:05:49.480Z,100702.34
2022-08-17T05:08:19.024Z,100709.72
2022-08-17T05:10:46.860Z,100708.16
2022-08-17T05:13:17.373Z,100706.56
2022-08-17T05:15:47.919Z,100716.09
2022-08-17T05:18:15.941Z,100713.53
2022-08-17T05:20:43.260Z,100719.75
2022-08-17T05:23:12.786Z,100724.00
2022-08-17T05:25:42.664Z,100729.81
2022-08-17T05:28:15.430Z,100728.47
2022-08-17T05:30:44.271Z,100723.44
2022-08-17T05:33:33.050Z,100726.34
2022-08-17T05:36:00.472Z,100726.34
2022-08-17T05:38:29.852Z,100736.06
2022-08-17T05:40:57.627Z,100722.09
2022-08-17T05:43:25.744Z,100726.78
2022-08-17T05:46:03.472Z,100734.72
2022-08-17T05:48:40.026Z,100729.13
2022-08-17T05:51:16.373Z,100719.06
2022-08-17T05:54:16.799Z,100732.25
2022-08-17T05:56:43.221Z,100730.34
2022-08-17T05:59:27.955Z,100731.88
2022-08-17T06:02:11.479Z,100732.69
2022-08-17T06:05:12.506Z,100739.25
2022-08-17T06:07:50.408Z,100737.38
2022-08-17T06:10:22.844Z,100744.16
2022-08-17T06:13:05.367Z,100749.41
2022-08-17T06:15:47.020Z,100744.59
2022-08-17T06:18:18.927Z,100744.03
2022-08-17T06:20:54.319Z,100739.00
2022-08-17T06:23:29.361Z,100745.81
2022-08-17T06:26:03.618Z,100745.81
2022-08-17T06:28:43.779Z,100743.13
2022-08-17T06:31:21.335Z,100739.06
2022-08-17T06:33:49.117Z,100736.38
2022-08-17T06:36:24.043Z,100752.69
2022-08-17T06:39:24.895Z,100742.63
2022-08-17T06:43:00.850Z,100740.69
2022-08-17T06:45:14.147Z,100732.78
2022-08-17T06:47:58.384Z,100737.47
2022-08-17T06:50:38.040Z,100739.00
2022-08-17T06:53:21.086Z,100743.91
2022-08-17T06:55:58.450Z,100746.69
2022-08-17T06:58:31.290Z,100750.56
2022-08-17T07:01:07.102Z,100745.00
2022-08-17T07:03:39.527Z,100751.22
2022-08-17T07:06:14.531Z,100738.59
2022-08-17T07:08:56.474Z,100754.97
2022-08-17T07:11:29.921Z,100747.25
2022-08-17T07:14:17.399Z,100743.97
2022-08-17T07:16:48.819Z,100748.06
2022-08-17T07:19:18.407Z,100752.75
2022-08-17T07:22:04.549Z,100748.50
2022-08-17T07:24:57.217Z,100748.91
2022-08-17T07:27:28.454Z,100748.78
2022-08-17T07:30:09.714Z,100743.16
2022-08-17T07:32:45.236Z,100750.94
2022-08-17T07:35:37.712Z,100750.94
2022-08-17T07:38:24.842Z,100748.66
2022-08-17T07:41:01.894Z,100748.72
2022-08-17T07:43:47.625Z,100752.59
2022-08-17T07:46:37.771Z,100750.34
2022-08-17T07:49:04.939Z,100752.31
2022-08-17T07:51:33.751Z,100745.34
2022-08-17T07:54:14.525Z,100748.88
2022-08-17T07:56:48.134Z,100751.06
2022-08-17T07:59:18.085Z,100758.66
2022-08-17T08:01:58.761Z,100757.50
2022-08-17T08:05:00.164Z,100765.28
2022-08-17T08:07:20.785Z,100762.19
2022-08-17T08:10:11.320Z,100763.38
2022-08-17T08:12:44.017Z,100761.06
2022-08-17T08:15:18.882Z,100765.94
2022-08-17T08:17:59.203Z,100757.63
2022-08-17T08:20:52.911Z,100766.56
2022-08-17T08:23:33.416Z,100770.28
2022-08-17T08:26:26.719Z,100773.63
2022-08-17T08:29:12.478Z,100777.13
2022-08-17T08:32:03.962Z,100783.38
2022-08-17T08:35:02.926Z,100774.44
2022-08-17T08:37:35.620Z,100789.59
2022-08-17T08:40:21.829Z,100787.88
2022-08-17T08:43:07.026Z,100786.91
2022-08-17T08:45:56.471Z,100788.66
2022-08-17T08:49:11.873Z,100791.22
2022-08-17T08:51:55.481Z,100799.78
2022-08-17T08:54:46.778Z,100795.88
2022-08-17T08:57:38.516Z,100797.47
2022-08-17T09:00:16.537Z,100796.69
2022-08-17T09:03:12.866Z,100801.94
2022-08-17T09:06:32.251Z,100803.91
2022-08-17T09:09:07.027Z,100796.09
2022-08-17T09:12:02.428Z,100802.56
2022-08-17T09:14:44.892Z,100796.34
2022-08-17T09:17:43.177Z,100796.75
2022-08-17T09:20:27.727Z,100795.19
2022-08-17T09:23:03.839Z,100800.81
2022-08-17T09:25:36.640Z,100794.78
2022-08-17T09:28:19.281Z,100795.97
2022-08-17T09:30:49.642Z,100796.72
2022-08-17T09:33:23.052Z,100794.78
2022-08-17T09:35:56.184Z,100799.63
2022-08-17T09:38:32.539Z,100796.72
2022-08-17T09:40:59.208Z,100803.31
2022-08-17T09:43:28.777Z,100797.25
2022-08-17T09:46:11.390Z,100795.50
2022-08-17T09:49:07.241Z,100801.75
2022-08-17T09:51:45.540Z,100791.84
2022-08-17T09:54:44.671Z,100802.53
2022-08-17T09:57:32.444Z,100793.94
2022-08-17T10:00:18.869Z,100795.88
2022-08-17T10:03:09.448Z,100791.78
2022-08-17T10:05:46.352Z,100799.53
2022-08-17T10:08:21.811Z,100797.00
2022-08-17T10:11:13.244Z,100801.09
2022-08-17T10:13:53.006Z,100795.44
2022-08-17T10:16:37.312Z,100803.00
2022-08-17T10:19:25.505Z,100788.00
2022-08-17T10:22:14.420Z,100791.28
2022-08-17T10:25:22.749Z,100794.78
2022-08-17T10:28:05.008Z,100790.69
2022-08-17T10:30:36.430Z,100780.50
2022-08-17T10:33:07.357Z,100780.88
2022-08-17T10:35:52.553Z,100790.59
2022-08-17T10:38:39.217Z,100788.06
2022-08-17T10:41:17.473Z,100779.25
2022-08-17T10:43:57.816Z,100772.78
2022-08-17T10:46:55.350Z,100770.63
2022-08-17T10:49:26.247Z,100771.34
2022-08-17T10:51:54.854Z,100769.91
2022-08-17T10:54:24.090Z,100769.31
2022-08-17T10:56:53.342Z,100777.25
2022-08-17T10:59:34.720Z,100770.03
2022-08-17T11:02:01.116Z,100771.94
2022-08-17T11:04:53.253Z,100769.19
2022-08-17T11:07:36.740Z,100768.94
2022-08-17T11:10:42.198Z,100753.53
2022-08-17T11:13:14.372Z,100754.25
2022-08-17T11:16:08.141Z,100756.94
2022-08-17T11:18:53.551Z,100750.16
2022-08-17T11:21:30.352Z,100755.69
2022-08-17T11:24:06.581Z,100742.78
2022-08-17T11:26:36.198Z,100753.66
2022-08-17T11:29:17.474Z,100749.53
2022-08-17T11:31:58.152Z,100749.09
2022-08-17T11:34:27.348Z,100757.59
2022-08-17T11:36:56.417Z,100747.44
2022-08-17T11:39:33.196Z,100747.03
2022-08-17T11:42:44.806Z,100751.50
2022-08-17T11:45:33.080Z,100753.41
2022-08-17T11:48:56.022Z,100748.50
2022-08-17T11:51:43.837Z,100748.22
2022-08-17T11:54:32.209Z,100741.94
2022-08-17T11:57:21.332Z,100738.00
2022-08-17T11:59:47.828Z,100741.28
2022-08-17T12:02:28.019Z,100733.25
2022-08-17T12:05:21.740Z,100737.13
2022-08-17T12:08:14.760Z,100736.38
2022-08-17T12:11:55.624Z,100739.03
2022-08-17T12:14:21.245Z,100735.03
2022-08-17T12:17:03.122Z,100727.66
2022-08-17T12:19:33.755Z,100732.63
2022-08-17T12:22:08.152Z,100738.03
2022-08-17T12:24:34.709Z,100740.38
2022-08-17T12:27:07.074Z,100736.22
2022-08-17T12:29:38.735Z,100730.88
2022-08-17T12:32:07.016Z,100747.09
2022-08-17T12:34:42.982Z,100732.59
2022-08-17T12:37:21.748Z,100728.28
2022-08-17T12:40:08.172Z,100725.69
2022-08-17T12:42:39.175Z,100721.69
2022-08-17T12:45:08.342Z,100727.13
2022-08-17T12:47:37.914Z,100720.31
2022-08-17T12:50:29.610Z,100724.34
2022-08-17T12:53:01.719Z,100719.25
2022-08-17T12:55:35.005Z,100713.16
2022-08-17T12:58:02.251Z,100705.13
2022-08-17T13:00:38.162Z,100716.84
2022-08-17T13:03:09.425Z,100713.19
2022-08-17T13:05:42.441Z,100715.53
2022-08-17T13:08:43.171Z,100698.25
2022-08-17T13:11:20.766Z,100697.81
2022-08-17T13:13:54.719Z,100696.59
2022-08-17T13:16:23.452Z,100700.25
2022-08-17T13:19:06.163Z,100691.34
2022-08-17T13:21:33.682Z,100690.88
2022-08-17T13:24:07.922Z,100687.16
2022-08-17T13:26:38.159Z,100692.75
2022-08-17T13:29:18.385Z,100687.81
2022-08-17T13:31:51.993Z,100693.69
2022-08-17T13:34:26.794Z,100690.44
2022-08-17T13:37:40.955Z,100694.94
2022-08-17T13:40:09.276Z,100687.84
2022-08-17T13:42:50.570Z,100682.91
2022-08-17T13:45:35.407Z,100676.53
2022-08-17T13:48:11.896Z,100677.81
2022-08-17T13:50:43.365Z,100673.63
2022-08-17T13:53:29.569Z,100672.25
2022-08-17T13:56:07.317Z,100678.28
2022-08-17T13:58:58.385Z,100674.13
2022-08-17T14:01:35.558Z,100674.13
2022-08-17T14:04:08.621Z,100669.81
2022-08-17T14:06:54.053Z,100663.94
2022-08-17T14:09:24.561Z,100666.56
2022-08-17T14:11:52.688Z,100672.03
2022-08-17T14:14:19.661Z,100669.25
2022-08-17T14:16:46.133Z,100665.06
2022-08-17T14:19:14.355Z,100668.31
2022-08-17T14:21:43.404Z,100670.63
2022-08-17T14:24:28.418Z,100664.47
2022-08-17T14:26:55.790Z,100662.28
2022-08-17T14:29:24.750Z,100670.50
2022-08-17T14:31:54.240Z,100657.22
2022-08-17T14:34:21.609Z,100652.09
2022-08-17T14:36:48.861Z,100654.56
2022-08-17T14:39:16.640Z,100650.88
2022-08-17T14:41:43.650Z,100660.59
2022-08-17T14:44:13.012Z,100657.84
2022-08-17T14:46:41.448Z,100647.63
2022-08-17T14:49:11.811Z,100651.16
2022-08-17T14:51:43.533Z,100653.66
2022-08-17T14:54:11.474Z,100639.13
2022-08-17T14:57:23.118Z,100653.81
2022-08-17T14:59:44.870Z,100636.81
2022-08-17T15:02:12.063Z,100641.31
2022-08-17T15:04:43.357Z,100639.13
2022-08-17T15:07:11.892Z,100640.66
2022-08-17T15:09:39.002Z,100643.59
2022-08-17T15:12:09.187Z,100644.38
2022-08-17T15:14:36.212Z,100642.22
2022-08-17T15:17:03.674Z,100637.88
2022-08-17T15:19:30.217Z,100636.34
2022-08-17T15:21:56.687Z,100636.19
2022-08-17T15:24:23.274Z,100640.03
2022-08-17T15:26:49.845Z,100642.34
2022-08-17T15:29:17.541Z,100634.94
2022-08-17T15:31:43.958Z,100631.06
2022-08-17T15:34:10.415Z,100636.34
2022-08-17T15:36:37.020Z,100633.53
2022-08-17T15:39:05.337Z,100633.72
2022-08-17T15:41:31.885Z,100615.00
2022-08-17T15:43:58.507Z,100630.59
2022-08-17T15:46:26.168Z,100610.22
2022-08-17T15:49:00.003Z,100610.84
2022-08-17T15:51:32.587Z,100610.50
2022-08-17T15:54:18.711Z,100602.31
2022-08-17T15:56:48.768Z,100597.84
2022-08-17T15:59:15.341Z,100591.66
2022-08-17T16:03:01.217Z,100588.72
2022-08-17T16:04:30.908Z,100587.47
2022-08-17T16:06:59.003Z,100591.19
2022-08-17T16:09:25.460Z,100591.03
2022-08-17T16:11:55.204Z,100591.19
2022-08-17T16:14:24.120Z,100582.53
2022-08-17T16:16:50.944Z,100578.97
2022-08-17T16:19:17.461Z,100585.63
2022-08-17T16:21:43.902Z,100581.13
2022-08-17T16:24:13.190Z,100579.88
2022-08-17T16:26:42.438Z,100576.34
2022-08-17T16:29:09.104Z,100581.72
2022-08-17T16:31:37.532Z,100574.31
2022-08-17T16:34:17.023Z,100576.94
2022-08-17T16:36:53.771Z,100573.09
2022-08-17T16:39:22.672Z,100575.22
2022-08-17T16:41:50.267Z,100571.69
2022-08-17T16:44:19.619Z,100568.25
2022-08-17T16:46:48.249Z,100568.25
2022-08-17T16:49:31.930Z,100555.75
2022-08-17T16:52:03.795Z,100562.38
2022-08-17T16:54:30.291Z,100562.88
2022-08-17T16:56:56.782Z,100565.78
2022-08-17T16:59:30.925Z,100559.16
2022-08-17T17:02:04.936Z,100568.75
2022-08-17T17:04:34.982Z,100571.53
2022-08-17T17:07:34.287Z,100562.25
2022-08-17T17:10:08.194Z,100563.81
2022-08-17T17:13:03.195Z,100560.88
2022-08-17T17:15:28.179Z,100554.84
2022-08-17T17:18:06.795Z,100557.16
2022-08-17T17:20:45.695Z,100565.06
2022-08-17T17:23:41.067Z,100558.72
2022-08-17T17:26:32.082Z,100565.97
2022-08-17T17:29:23.960Z,100562.28
2022-08-17T17:32:20.847Z,100589.03
2022-08-17T17:34:59.961Z,100636.94
2022-08-17T17:37:33.876Z,100665.56
2022-08-17T17:40:02.824Z,100664.63
2022-08-17T17:42:32.190Z,100655.19
2022-08-17T17:45:07.478Z,100677.91
2022-08-17T17:47:34.726Z,100721.34
2022-08-17T17:50:03.709Z,100733.38
2022-08-17T17:52:45.278Z,100763.19
2022-08-17T17:55:33.550Z,100777.50
2022-08-17T17:58:14.322Z,100786.00
2022-08-17T18:01:01.783Z,100775.63
2022-08-17T18:04:01.644Z,100763.88
2022-08-17T18:07:03.857Z,100777.13
2022-08-17T18:10:19.590Z,100770.16
2022-08-17T18:13:08.462Z,100744.97
2022-08-17T18:15:50.991Z,100717.44
2022-08-17T18:18:17.481Z,100705.22
2022-08-17T18:20:53.190Z,100704.00
2022-08-17T18:23:27.097Z,100710.31
2022-08-17T18:25:55.479Z,100709.59
2022-08-17T18:28:35.539Z,100700.00
2022-08-17T18:31:17.769Z,100700.00
2022-08-17T18:33:47.968Z,100715.44
2022-08-17T18:36:26.478Z,100715.72
2022-08-17T18:39:10.524Z,100711.50
2022-08-17T18:41:48.606Z,100711.94
2022-08-17T18:44:42.852Z,100704.00
2022-08-17T18:47:21.684Z,100699.56
2022-08-17T18:49:56.162Z,100695.06
2022-08-17T18:52:31.912Z,100687.31
2022-08-17T18:55:10.567Z,100691.00
2022-08-17T18:57:43.435Z,100691.91
2022-08-17T19:00:29.882Z,100690.75
2022-08-17T19:03:00.871Z,100686.53
2022-08-17T19:05:56.229Z,100690.50
2022-08-17T19:08:26.523Z,100684.91
2022-08-17T19:11:01.014Z,100677.31
2022-08-17T19:14:02.963Z,100677.00
2022-08-17T19:16:44.467Z,100684.06
2022-08-17T19:19:18.558Z,100686.78
2022-08-17T19:21:48.994Z,100679.91
2022-08-17T19:24:21.146Z,100687.31
2022-08-17T19:27:10.896Z,100677.00
2022-08-17T19:29:40.580Z,100675.28
2022-08-17T19:32:09.615Z,100677.22
2022-08-17T19:34:39.045Z,100678.44
2022-08-17T19:37:23.179Z,100680.22
2022-08-17T19:40:07.812Z,100683.00
2022-08-17T19:43:00.463Z,100676.59
2022-08-17T19:45:42.237Z,100683.63
2022-08-17T19:48:45.366Z,100670.22
2022-08-17T19:51:38.685Z,100674.34
2022-08-17T19:54:20.293Z,100678.66
2022-08-17T19:57:01.738Z,100668.13
2022-08-17T19:59:54.938Z,100675.03
2022-08-17T20:02:26.680Z,100674.84
2022-08-17T20:04:59.781Z,100665.88
2022-08-17T20:07:35.800Z,100673.72
2022-08-17T20:10:09.567Z,100664.75
2022-08-17T20:12:38.928Z,100668.91
2022-08-17T20:15:10.115Z,100679.63
2022-08-17T20:17:40.617Z,100670.69
2022-08-17T20:20:33.219Z,100660.19
2022-08-17T20:23:11.788Z,100670.75
2022-08-17T20:25:57.274Z,100669.19
2022-08-17T20:28:30.489Z,100671.16
2022-08-17T20:30:58.190Z,100673.72
2022-08-17T20:33:37.029Z,100666.13
2022-08-17T20:36:18.036Z,100674.75
2022-08-17T20:38:51.702Z,100677.50
2022-08-17T20:41:22.826Z,100683.16
2022-08-17T20:43:58.869Z,100679.88
2022-08-17T20:46:37.857Z,100682.59
2022-08-17T20:49:37.560Z,100692.34
2022-08-17T20:52:13.345Z,100678.34
2022-08-17T20:54:55.135Z,100674.47
2022-08-17T20:57:31.171Z,100669.81
2022-08-17T21:00:13.246Z,100666.72
2022-08-17T21:02:44.455Z,100678.03
2022-08-17T21:05:48.545Z,100673.97
2022-08-17T21:08:32.110Z,100681.16
2022-08-17T21:11:20.220Z,100677.31
2022-08-17T21:14:25.880Z,100682.78
2022-08-17T21:17:14.808Z,100685.34
2022-08-17T21:20:10.228Z,100684.97
2022-08-17T21:22:56.489Z,100681.88
2022-08-17T21:25:44.803Z,100687.16
2022-08-17T21:28:34.129Z,100685.59
2022-08-17T21:31:08.437Z,100692.66
2022-08-17T21:33:39.859Z,100696.94
2022-08-17T21:36:12.622Z,100700.84
2022-08-17T21:38:48.607Z,100697.53
2022-08-17T21:41:28.394Z,100701.63
2022-08-17T21:44:02.834Z,100706.53
2022-08-17T21:46:34.319Z,100696.59
2022-08-17T21:49:12.238Z,100702.22
2022-08-17T21:51:54.153Z,100700.31
2022-08-17T21:54:31.340Z,100691.19
2022-08-17T21:57:00.856Z,100697.78
2022-08-17T21:59:35.582Z,100690.97
2022-08-17T22:02:18.687Z,100691.97
2022-08-17T22:04:58.646Z,100700.56
2022-08-17T22:07:46.906Z,100693.56
2022-08-17T22:10:28.555Z,100692.41
2022-08-17T22:13:03.445Z,100688.88
2022-08-17T22:15:29.971Z,100689.28
2022-08-17T22:17:58.510Z,100686.78
2022-08-17T22:20:25.255Z,100684.06
2022-08-17T22:23:24.602Z,100679.59
2022-08-17T22:26:02.046Z,100679.22
2022-08-17T22:28:53.659Z,100671.44
2022-08-17T22:31:23.276Z,100672.97
2022-08-17T22:34:12.259Z,100664.63
2022-08-17T22:36:41.754Z,100669.50
2022-08-17T22:39:08.369Z,100670.88
2022-08-17T22:41:40.470Z,100670.69
2022-08-17T22:44:14.213Z,100669.53
2022-08-17T22:46:56.994Z,100671.47
2022-08-17T22:49:35.181Z,100677.28
2022-08-17T22:52:23.928Z,100671.81
2022-08-17T22:55:34.876Z,100673.75
2022-08-17T22:58:21.042Z,100676.50
2022-08-17T23:00:49.023Z,100676.91
2022-08-17T23:03:26.214Z,100677.47
2022-08-17T23:06:05.804Z,100682.91
2022-08-17T23:08:35.565Z,100668.91
2022-08-17T23:11:02.369Z,100664.88
2022-08-17T23:13:28.917Z,100671.47
2022-08-17T23:15:55.390Z,100663.09
2022-08-17T23:18:23.414Z,100667.97
2022-08-17T23:20:49.969Z,100672.63
2022-08-17T23:23:23.431Z,100671.09
2022-08-17T23:25:50.257Z,100674.00
2022-08-17T23:28:16.856Z,100675.34
2022-08-17T23:30:45.058Z,100679.44
2022-08-17T23:33:29.756Z,100671.84
2022-08-17T23:36:00.287Z,100679.03
2022-08-17T23:38:27.763Z,100664.06
2022-08-17T23:40:56.265Z,100667.19
2022-08-17T23:43:24.281Z,100663.88
2022-08-17T23:45:54.305Z,100667.56
2022-08-17T23:48:28.562Z,100660.75
2022-08-17T23:51:05.778Z,100668.75
2022-08-17T23:53:36.590Z,100663.50
2022-08-17T23:56:09.354Z,100668.31
2022-08-17T23:58:38.470Z,100667.38
